createdAt,value
2018-09-02T00:00:38.983Z,88.48
2018-09-02T00:03:09.582Z,88.56
2018-09-02T00:05:40.061Z,87.91
2018-09-02T00:08:10.600Z,86.94
2018-09-02T00:10:41.546Z,86.49
2018-09-02T00:13:12.173Z,86.45
2018-09-02T00:15:42.811Z,86.55
2018-09-02T00:18:13.488Z,86.52
2018-09-02T00:20:44.826Z,87.46
2018-09-02T00:23:15.581Z,87.88
2018-09-02T00:25:46.175Z,88.05
2018-09-02T00:28:16.783Z,88.02
2018-09-02T00:30:47.608Z,88.05
2018-09-02T00:33:18.206Z,86.55
2018-09-02T00:35:49.207Z,86.02
2018-09-02T00:38:19.873Z,86.67
2018-09-02T00:40:50.487Z,87.01
2018-09-02T00:43:20.995Z,86.51
2018-09-02T00:45:51.541Z,86.56
2018-09-02T00:48:22.154Z,86.91
2018-09-02T00:50:52.767Z,86.81
2018-09-02T00:53:23.598Z,86.82
2018-09-02T00:55:54.394Z,87.29
2018-09-02T00:58:24.955Z,87.27
2018-09-02T01:00:55.374Z,87.55
2018-09-02T01:03:26.010Z,87.76
2018-09-02T01:05:56.392Z,87.35
2018-09-02T01:08:27.089Z,87.34
2018-09-02T01:10:57.667Z,88.66
2018-09-02T01:13:28.190Z,88.54
2018-09-02T01:15:58.710Z,88.90
2018-09-02T01:18:29.153Z,88.75
2018-09-02T01:20:59.756Z,89.43
2018-09-02T01:23:30.377Z,88.82
2018-09-02T01:26:00.789Z,89.10
2018-09-02T01:28:31.190Z,89.35
2018-09-02T01:31:01.704Z,89.91
2018-09-02T01:33:32.268Z,90.29
2018-09-02T01:36:02.796Z,91.23
2018-09-02T01:38:33.244Z,91.24
2018-09-02T01:41:03.732Z,91.30
2018-09-02T01:43:34.150Z,91.22
2018-09-02T01:46:04.979Z,91.59
2018-09-02T01:48:35.385Z,92.18
2018-09-02T01:51:05.877Z,92.24
2018-09-02T01:53:36.201Z,92.28
2018-09-02T01:56:06.678Z,92.41
2018-09-02T01:58:37.146Z,92.90
2018-09-02T02:01:09.004Z,92.62
2018-09-02T02:03:39.534Z,92.34
2018-09-02T02:06:10.190Z,92.60
2018-09-02T02:08:40.587Z,92.35
2018-09-02T02:11:11.060Z,93.03
2018-09-02T02:13:41.579Z,92.79
2018-09-02T02:16:12.067Z,92.89
2018-09-02T02:18:42.573Z,92.89
2018-09-02T02:21:13.185Z,92.74
2018-09-02T02:23:43.839Z,93.01
2018-09-02T02:26:14.308Z,93.36
2018-09-02T02:28:44.703Z,94.33
2018-09-02T02:31:15.166Z,94.16
2018-09-02T02:33:45.689Z,93.74
2018-09-02T02:36:16.065Z,93.17
2018-09-02T02:38:46.942Z,94.11
2018-09-02T02:41:17.534Z,95.75
2018-09-02T02:43:47.969Z,95.64
2018-09-02T02:46:18.489Z,94.85
2018-09-02T02:48:49.024Z,93.90
2018-09-02T02:51:19.670Z,93.47
2018-09-02T02:53:50.122Z,92.90
2018-09-02T02:56:20.403Z,93.17
2018-09-02T02:58:51.015Z,93.01
2018-09-02T03:01:21.641Z,93.42
2018-09-02T03:03:52.285Z,93.90
2018-09-02T03:06:23.423Z,93.34
2018-09-02T03:08:53.952Z,93.03
2018-09-02T03:11:24.321Z,93.15
2018-09-02T03:13:54.861Z,93.32
2018-09-02T03:16:25.261Z,93.16
2018-09-02T03:18:55.717Z,93.97
2018-09-02T03:21:26.256Z,94.18
2018-09-02T03:23:56.683Z,94.63
2018-09-02T03:26:27.205Z,94.80
2018-09-02T03:28:58.555Z,95.08
2018-09-02T03:31:28.928Z,95.41
2018-09-02T03:33:59.457Z,95.69
2018-09-02T03:36:29.964Z,95.42
2018-09-02T03:39:00.361Z,96.22
2018-09-02T03:41:31.013Z,96.71
2018-09-02T03:44:01.720Z,97.32
2018-09-02T03:46:32.246Z,97.43
2018-09-02T03:49:02.894Z,97.71
2018-09-02T03:51:33.442Z,97.29
2018-09-02T03:54:04.053Z,97.20
2018-09-02T03:56:34.512Z,97.31
2018-09-02T03:59:05.100Z,97.60
2018-09-02T04:01:35.561Z,97.90
2018-09-02T04:04:05.934Z,98.19
2018-09-02T04:06:36.594Z,98.08
2018-09-02T04:09:10.732Z,96.21
2018-09-02T04:11:41.756Z,96.78
2018-09-02T04:14:12.256Z,96.53
2018-09-02T04:16:42.788Z,95.80
2018-09-02T04:19:13.197Z,95.00
2018-09-02T04:21:43.779Z,95.01
2018-09-02T04:24:14.546Z,94.93
2018-09-02T04:26:45.161Z,94.80
2018-09-02T04:29:15.710Z,95.21
2018-09-02T04:31:46.223Z,95.39
2018-09-02T04:34:16.784Z,95.20
2018-09-02T04:36:47.292Z,95.53
2018-09-02T04:39:17.778Z,95.44
2018-09-02T04:41:48.324Z,96.30
2018-09-02T04:44:18.829Z,96.43
2018-09-02T04:46:49.345Z,96.89
2018-09-02T04:49:19.965Z,97.30
2018-09-02T04:51:50.805Z,97.08
2018-09-02T04:54:21.557Z,97.45
2018-09-02T04:56:51.966Z,96.92
2018-09-02T04:59:22.441Z,96.82
2018-09-02T05:01:53.247Z,96.47
2018-09-02T05:04:23.759Z,96.22
2018-09-02T05:06:54.404Z,96.14
2018-09-02T05:09:24.832Z,96.32
2018-09-02T05:11:55.472Z,95.28
2018-09-02T05:14:25.932Z,92.60
2018-09-02T05:16:56.367Z,93.52
2018-09-02T05:19:26.807Z,91.21
2018-09-02T05:21:57.328Z,88.62
2018-09-02T05:24:27.895Z,85.80
2018-09-02T05:26:58.360Z,84.26
2018-09-02T05:29:28.603Z,81.92
2018-09-02T05:31:59.107Z,79.15
2018-09-02T05:34:29.695Z,78.21
2018-09-02T05:37:00.825Z,76.80
2018-09-02T05:39:31.203Z,76.82
2018-09-02T05:42:01.799Z,76.25
2018-09-02T05:44:32.306Z,72.84
2018-09-02T05:47:02.808Z,74.59
2018-09-02T05:49:34.022Z,73.07
2018-09-02T05:52:04.565Z,76.86
2018-09-02T05:54:35.112Z,75.89
2018-09-02T05:57:05.582Z,70.14
2018-09-02T05:59:36.181Z,69.14
2018-09-02T06:02:07.029Z,68.41
2018-09-02T06:04:37.718Z,70.70
2018-09-02T06:07:08.267Z,73.02
2018-09-02T06:09:38.605Z,74.72
2018-09-02T06:12:09.666Z,76.06
2018-09-02T06:14:40.166Z,73.95
2018-09-02T06:17:10.739Z,70.57
2018-09-02T06:19:41.363Z,68.32
2018-09-02T06:22:11.848Z,65.06
2018-09-02T06:24:42.381Z,64.51
2018-09-02T06:27:12.771Z,65.07
2018-09-02T06:29:43.228Z,67.36
2018-09-02T06:32:13.711Z,68.08
2018-09-02T06:34:44.309Z,69.06
2018-09-02T06:37:14.970Z,70.47
2018-09-02T06:39:45.506Z,68.80
2018-09-02T06:42:16.212Z,63.70
2018-09-02T06:44:47.435Z,62.53
2018-09-02T06:47:18.148Z,65.72
2018-09-02T06:49:48.984Z,60.93
2018-09-02T06:52:19.393Z,57.58
2018-09-02T06:54:50.103Z,56.26
2018-09-02T06:57:20.778Z,53.62
2018-09-02T06:59:51.453Z,54.81
2018-09-02T07:02:22.049Z,53.29
2018-09-02T07:04:52.861Z,54.89
2018-09-02T07:07:23.659Z,57.96
2018-09-02T07:09:54.331Z,60.22
2018-09-02T07:12:30.527Z,62.44
2018-09-02T07:15:01.279Z,62.36
2018-09-02T07:17:31.768Z,61.22
2018-09-02T07:20:02.447Z,60.34
2018-09-02T07:22:33.031Z,57.58
2018-09-02T07:25:04.742Z,56.71
2018-09-02T07:27:35.336Z,53.93
2018-09-02T07:30:05.996Z,52.88
2018-09-02T07:32:37.107Z,50.49
2018-09-02T07:35:08.004Z,50.32
2018-09-02T07:37:39.149Z,49.26
2018-09-02T07:40:10.092Z,49.14
2018-09-02T07:42:40.740Z,48.39
2018-09-02T07:45:12.856Z,48.21
2018-09-02T07:47:44.000Z,45.42
2018-09-02T07:50:15.205Z,48.33
2018-09-02T07:52:46.837Z,49.50
2018-09-02T07:55:18.475Z,50.19
2018-09-02T07:57:49.332Z,51.90
2018-09-02T08:00:20.192Z,51.70
2018-09-02T08:02:51.959Z,46.90
2018-09-02T08:05:23.478Z,47.98
2018-09-02T08:07:54.210Z,49.25
2018-09-02T08:10:25.554Z,50.72
2018-09-02T08:12:56.726Z,52.60
2018-09-02T08:15:27.407Z,54.63
2018-09-02T08:17:58.440Z,55.52
2018-09-02T08:20:28.999Z,56.23
2018-09-02T08:23:00.142Z,56.16
2018-09-02T08:25:30.773Z,54.65
2018-09-02T08:28:01.852Z,53.21
2018-09-02T08:30:33.046Z,48.79
2018-09-02T08:33:03.877Z,43.83
2018-09-02T08:35:35.011Z,42.16
2018-09-02T08:38:06.629Z,38.17
2018-09-02T08:40:38.462Z,39.02
2018-09-02T08:43:09.472Z,40.36
2018-09-02T08:45:40.511Z,44.65
2018-09-02T08:48:11.239Z,45.79
2018-09-02T08:50:41.887Z,46.84
2018-09-02T08:53:12.489Z,48.03
2018-09-02T08:55:43.857Z,48.57
2018-09-02T08:58:14.342Z,47.00
2018-09-02T09:00:46.990Z,43.74
2018-09-02T09:03:17.662Z,45.44
2018-09-02T09:05:48.971Z,46.44
2018-09-02T09:08:21.291Z,47.75
2018-09-02T09:10:53.049Z,44.29
2018-09-02T09:13:24.621Z,42.84
2018-09-02T09:15:55.270Z,45.06
2018-09-02T09:18:26.855Z,48.56
2018-09-02T09:20:58.284Z,48.15
2018-09-02T09:23:29.064Z,45.17
2018-09-02T09:25:59.908Z,44.98
2018-09-02T09:28:30.482Z,45.45
2018-09-02T09:31:01.701Z,46.63
2018-09-02T09:33:32.502Z,46.23
2018-09-02T09:36:03.134Z,45.14
2018-09-02T09:38:33.942Z,38.83
2018-09-02T09:41:05.343Z,45.49
2018-09-02T09:43:35.907Z,47.42
2018-09-02T09:46:06.659Z,49.61
2018-09-02T09:48:37.851Z,51.73
2018-09-02T09:51:08.333Z,54.98
2018-09-02T09:53:39.744Z,55.46
2018-09-02T09:56:10.365Z,57.15
2018-09-02T09:58:40.763Z,57.71
2018-09-02T10:01:11.516Z,59.60
2018-09-02T10:03:42.183Z,55.50
2018-09-02T10:06:12.964Z,52.15
2018-09-02T10:08:43.552Z,53.91
2018-09-02T10:11:15.452Z,52.83
2018-09-02T10:13:46.021Z,53.84
2018-09-02T10:16:17.289Z,52.48
2018-09-02T10:18:47.874Z,53.98
2018-09-02T10:21:18.631Z,54.00
2018-09-02T10:23:48.999Z,54.32
2018-09-02T10:26:20.604Z,54.43
2018-09-02T10:28:52.642Z,54.54
2018-09-02T10:31:24.333Z,55.21
2018-09-02T10:33:55.873Z,54.68
2018-09-02T10:36:28.552Z,54.69
2018-09-02T10:39:00.411Z,56.23
2018-09-02T10:41:32.205Z,55.89
2018-09-02T10:44:03.689Z,56.39
2018-09-02T10:46:34.576Z,56.70
2018-09-02T10:49:06.516Z,56.99
2018-09-02T10:51:37.379Z,56.81
2018-09-02T10:54:09.196Z,58.08
2018-09-02T10:56:40.613Z,56.88
2018-09-02T10:59:11.515Z,57.94
2018-09-02T11:01:43.357Z,59.25
2018-09-02T11:04:14.330Z,59.29
2018-09-02T11:06:45.796Z,60.68
2018-09-02T11:09:17.609Z,61.13
2018-09-02T11:11:48.985Z,63.38
2018-09-02T11:14:20.500Z,66.20
2018-09-02T11:16:52.177Z,67.71
2018-09-02T11:19:24.636Z,67.65
2018-09-02T11:21:58.429Z,69.63
2018-09-02T11:24:29.979Z,70.48
2018-09-02T11:27:01.856Z,72.51
2018-09-02T11:29:33.803Z,73.83
2018-09-02T11:32:06.023Z,74.32
2018-09-02T11:34:37.761Z,77.26
2018-09-02T11:37:09.851Z,77.69
2018-09-02T11:39:43.955Z,78.24
2018-09-02T11:42:16.591Z,79.42
2018-09-02T12:28:02.973Z,92.62
2018-09-02T12:30:35.538Z,93.23
2018-09-02T12:33:07.941Z,92.19
2018-09-02T12:35:40.078Z,91.91
2018-09-02T12:38:12.959Z,93.23
2018-09-02T12:40:45.658Z,91.76
2018-09-02T12:43:17.719Z,91.50
2018-09-02T12:45:49.967Z,92.10
2018-09-02T12:48:23.330Z,92.05
2018-09-02T12:50:56.861Z,89.35
2018-09-02T12:53:30.178Z,89.04
2018-09-02T12:56:01.953Z,87.95
2018-09-02T12:58:34.970Z,87.80
2018-09-02T13:01:06.923Z,86.58
2018-09-02T13:03:38.687Z,86.70
2018-09-02T13:06:11.995Z,85.04
2018-09-02T13:08:44.400Z,84.13
2018-09-02T13:11:16.954Z,85.55
2018-09-02T13:13:48.661Z,84.87
2018-09-02T13:16:21.419Z,83.64
2018-09-02T13:18:53.630Z,85.98
2018-09-02T13:21:25.864Z,86.68
2018-09-02T13:23:57.844Z,87.99
2018-09-02T13:26:30.938Z,89.41
2018-09-02T13:29:03.457Z,87.67
2018-09-02T13:31:38.578Z,89.89
2018-09-02T13:34:10.629Z,87.39
2018-09-02T13:36:42.483Z,85.57
2018-09-02T13:39:14.499Z,86.00
2018-09-02T13:41:47.450Z,87.29
2018-09-02T13:44:19.130Z,89.54
2018-09-02T13:46:51.273Z,87.35
2018-09-02T13:49:23.693Z,90.55
2018-09-02T13:51:56.414Z,93.58
2018-09-02T13:54:28.528Z,94.06
2018-09-02T13:57:07.337Z,92.75
2018-09-02T13:59:39.118Z,92.72
2018-09-02T14:02:10.816Z,88.79
2018-09-02T14:04:43.787Z,86.12
2018-09-02T14:07:16.185Z,86.13
2018-09-02T14:09:48.028Z,86.01
2018-09-02T14:12:20.949Z,80.23
2018-09-02T14:14:53.029Z,77.55
2018-09-02T14:17:24.791Z,76.79
2018-09-02T14:19:57.067Z,76.38
2018-09-02T14:22:29.013Z,76.59
2018-09-02T14:25:01.181Z,76.47
2018-09-02T14:27:33.359Z,74.15
2018-09-02T14:30:06.461Z,71.84
2018-09-02T14:32:38.963Z,70.45
2018-09-02T14:35:12.320Z,71.67
2018-09-02T14:37:44.210Z,67.92
2018-09-02T14:40:16.890Z,66.59
2018-09-02T14:42:48.533Z,64.64
2018-09-02T14:45:20.190Z,63.88
2018-09-02T14:47:52.053Z,64.64
2018-09-02T14:50:23.809Z,63.78
2018-09-02T14:52:55.622Z,60.06
2018-09-02T14:55:27.987Z,60.52
2018-09-02T14:57:59.878Z,58.98
2018-09-02T15:00:31.483Z,58.92
2018-09-02T15:03:04.522Z,58.05
2018-09-02T15:05:36.282Z,58.29
2018-09-02T15:08:08.555Z,56.43
2018-09-02T15:10:40.240Z,55.00
2018-09-02T15:13:11.935Z,57.26
2018-09-02T15:15:44.010Z,58.71
2018-09-02T15:18:16.593Z,58.24
2018-09-02T15:20:48.228Z,57.88
2018-09-02T15:23:19.907Z,56.41
2018-09-02T15:25:51.691Z,57.79
2018-09-02T15:28:23.539Z,58.40
2018-09-02T15:30:55.423Z,58.15
2018-09-02T15:33:27.820Z,56.92
2018-09-02T15:35:59.317Z,55.10
2018-09-02T15:38:33.238Z,53.73
2018-09-02T15:41:05.537Z,52.71
2018-09-02T15:43:39.133Z,52.33
2018-09-02T15:46:11.274Z,56.30
2018-09-02T15:48:52.364Z,58.02
2018-09-02T15:51:24.928Z,64.56
2018-09-02T15:53:56.738Z,64.93
2018-09-02T15:56:28.331Z,69.54
2018-09-02T15:59:00.921Z,73.91
2018-09-02T16:01:32.679Z,75.01
2018-09-02T16:04:05.272Z,77.83
2018-09-02T16:06:37.709Z,78.16
2018-09-02T16:09:12.744Z,77.99
2018-09-02T16:11:44.764Z,79.62
2018-09-02T16:14:17.088Z,79.99
2018-09-02T16:16:49.024Z,81.36
2018-09-02T16:19:21.710Z,81.60
2018-09-02T16:21:54.523Z,81.08
2018-09-02T16:24:26.355Z,80.15
2018-09-02T16:27:00.303Z,80.30
2018-09-02T16:29:34.402Z,79.85
2018-09-02T16:32:07.556Z,80.55
2018-09-02T16:34:39.997Z,79.96
2018-09-02T16:37:12.361Z,79.92
2018-09-02T16:39:44.807Z,80.54
2018-09-02T16:42:18.420Z,81.38
2018-09-02T16:44:50.362Z,80.57
2018-09-02T16:47:23.248Z,80.15
2018-09-02T16:49:56.508Z,80.56
2018-09-02T16:52:29.175Z,80.51
2018-09-02T16:55:01.979Z,81.01
2018-09-02T16:57:35.293Z,81.34
2018-09-02T17:00:08.668Z,82.09
2018-09-02T17:02:42.222Z,82.33
2018-09-02T17:05:21.704Z,83.76
2018-09-02T17:07:53.820Z,83.77
2018-09-02T17:10:26.304Z,83.94
2018-09-02T17:12:58.200Z,84.54
2018-09-02T17:15:30.757Z,85.22
2018-09-02T17:18:02.833Z,84.59
2018-09-02T17:20:38.746Z,85.19
2018-09-02T17:23:13.748Z,85.15
2018-09-02T17:25:46.277Z,85.93
2018-09-02T17:28:19.737Z,86.30
2018-09-02T17:30:51.447Z,86.90
2018-09-02T17:33:24.011Z,86.91
2018-09-02T17:35:56.289Z,87.43
2018-09-02T17:38:28.215Z,87.82
2018-09-02T17:41:01.021Z,87.98
2018-09-02T17:43:32.698Z,88.86
2018-09-02T17:46:06.332Z,88.58
2018-09-02T17:48:40.290Z,88.53
2018-09-02T17:51:13.020Z,89.64
2018-09-02T17:53:45.519Z,89.09
2018-09-02T17:56:17.355Z,88.98
2018-09-02T17:58:49.282Z,89.19
2018-09-02T18:01:21.236Z,89.25
2018-09-02T18:03:55.550Z,89.40
2018-09-02T18:06:30.010Z,89.45
2018-09-02T18:09:03.058Z,90.21
2018-09-02T18:11:36.584Z,90.59
2018-09-02T18:14:08.704Z,91.13
2018-09-02T18:16:41.089Z,92.29
2018-09-02T18:19:13.081Z,91.44
2018-09-02T18:21:46.858Z,91.78
2018-09-02T18:24:19.394Z,91.83
2018-09-02T18:26:51.938Z,92.18
2018-09-02T18:29:23.612Z,92.70
2018-09-02T18:31:55.550Z,93.19
2018-09-02T18:34:27.394Z,93.28
2018-09-02T18:36:59.696Z,93.55
2018-09-02T18:39:31.872Z,92.66
2018-09-02T18:42:03.866Z,92.99
2018-09-02T18:44:35.602Z,93.19
2018-09-02T18:47:07.652Z,93.37
2018-09-02T18:49:40.028Z,92.95
2018-09-02T18:52:12.375Z,93.49
2018-09-02T18:54:44.333Z,93.72
2018-09-02T18:57:16.334Z,93.38
2018-09-02T18:59:48.304Z,94.06
2018-09-02T19:02:20.551Z,93.90
2018-09-02T19:04:52.493Z,93.66
2018-09-02T19:07:24.229Z,94.13
2018-09-02T19:09:57.283Z,94.17
2018-09-02T19:12:29.325Z,94.19
2018-09-02T19:15:02.956Z,94.86
2018-09-02T19:17:35.361Z,94.58
2018-09-02T19:20:07.568Z,94.83
2018-09-02T19:22:40.230Z,94.64
2018-09-02T19:25:13.364Z,94.54
2018-09-02T19:27:45.499Z,95.22
2018-09-02T19:30:18.247Z,95.61
2018-09-02T19:32:50.795Z,95.11
2018-09-02T19:35:22.541Z,94.99
2018-09-02T19:37:54.583Z,95.40
2018-09-02T19:40:26.553Z,95.24
2018-09-02T19:42:58.541Z,94.77
2018-09-02T19:45:30.497Z,93.43
2018-09-02T19:48:02.435Z,93.01
2018-09-02T19:50:34.278Z,92.34
2018-09-02T19:53:06.865Z,92.01
2018-09-02T19:55:39.028Z,91.78
2018-09-02T19:58:12.537Z,92.62
2018-09-02T20:00:44.663Z,93.97
2018-09-02T20:03:17.597Z,94.03
2018-09-02T20:05:49.984Z,94.42
2018-09-02T20:08:22.927Z,94.76
2018-09-02T20:10:57.138Z,95.16
2018-09-02T20:13:29.528Z,95.50
2018-09-02T20:16:01.565Z,94.80
2018-09-02T20:18:34.313Z,94.88
2018-09-02T20:21:08.233Z,95.19
2018-09-02T20:23:40.330Z,95.19
2018-09-02T20:26:14.172Z,95.11
2018-09-02T20:28:46.029Z,96.42
2018-09-02T20:31:17.933Z,95.60
2018-09-02T20:33:50.919Z,94.70
2018-09-02T20:36:23.171Z,95.03
2018-09-02T20:38:54.934Z,95.19
2018-09-02T20:41:28.556Z,95.20
2018-09-02T20:44:00.999Z,95.82
2018-09-02T20:46:35.041Z,96.89
2018-09-02T20:49:08.153Z,96.80
2018-09-02T20:51:40.223Z,97.22
2018-09-02T20:54:12.195Z,98.23
2018-09-02T20:56:44.837Z,97.56
2018-09-02T20:59:17.621Z,97.40
2018-09-02T21:01:49.429Z,97.14
2018-09-02T21:04:21.465Z,97.11
2018-09-02T21:06:53.944Z,97.50
2018-09-02T21:09:25.556Z,97.83
2018-09-02T21:11:57.355Z,97.59
2018-09-02T21:14:28.850Z,97.41
2018-09-02T21:17:01.118Z,97.03
2018-09-02T21:19:32.616Z,97.05
2018-09-02T21:22:04.245Z,97.08
2018-09-02T21:24:35.778Z,96.79
2018-09-02T21:27:07.109Z,96.56
2018-09-02T21:29:38.382Z,97.05
2018-09-02T21:32:10.106Z,96.83
2018-09-02T21:34:41.522Z,96.93
2018-09-02T21:37:14.426Z,97.42
2018-09-02T21:39:45.001Z,97.59
2018-09-02T21:42:16.602Z,97.16
2018-09-02T21:44:47.316Z,97.45
2018-09-02T21:47:17.917Z,96.86
2018-09-02T21:49:48.847Z,97.00
2018-09-02T21:52:19.803Z,97.62
2018-09-02T21:54:50.902Z,96.95
2018-09-02T21:57:21.380Z,97.24
2018-09-02T21:59:52.067Z,97.26
2018-09-02T22:02:22.830Z,97.46
2018-09-02T22:04:53.342Z,98.02
2018-09-02T22:07:23.998Z,97.53
2018-09-02T22:09:54.653Z,97.53
2018-09-02T22:12:25.188Z,97.08
2018-09-02T22:14:55.687Z,97.34
2018-09-02T22:17:26.546Z,97.66
2018-09-02T22:19:57.251Z,98.37
2018-09-02T22:22:27.739Z,97.60
2018-09-02T22:24:58.390Z,97.88
2018-09-02T22:27:28.801Z,98.15
2018-09-02T22:29:59.299Z,98.57
2018-09-02T22:32:30.017Z,99.16
2018-09-02T22:35:00.533Z,98.91
2018-09-02T22:37:31.066Z,98.30
2018-09-02T22:40:01.921Z,98.67
2018-09-02T22:42:32.520Z,98.80
2018-09-02T22:45:02.929Z,98.44
2018-09-02T22:47:33.471Z,99.29
2018-09-02T22:50:03.927Z,99.34
2018-09-02T22:52:34.464Z,99.81
2018-09-02T22:55:05.032Z,100.00
2018-09-02T22:57:35.829Z,100.00
2018-09-02T23:00:06.753Z,100.00
2018-09-02T23:02:37.382Z,100.00
2018-09-02T23:05:08.002Z,100.00
2018-09-02T23:07:38.439Z,100.00
2018-09-02T23:10:08.895Z,100.00
2018-09-02T23:12:39.530Z,100.00
2018-09-02T23:15:10.128Z,100.00
2018-09-02T23:17:40.608Z,100.00
2018-09-02T23:20:11.116Z,100.00
2018-09-02T23:22:41.508Z,100.00
2018-09-02T23:25:12.610Z,100.00
2018-09-02T23:27:43.245Z,100.00
2018-09-02T23:30:13.897Z,100.00
2018-09-02T23:32:44.383Z,100.00
2018-09-02T23:35:15.180Z,100.00
2018-09-02T23:37:45.525Z,100.00
2018-09-02T23:40:16.144Z,100.00
2018-09-02T23:42:46.715Z,100.00
2018-09-02T23:45:17.341Z,100.00
2018-09-02T23:47:47.715Z,100.00
2018-09-02T23:50:18.209Z,100.00
2018-09-02T23:52:48.733Z,100.00
2018-09-02T23:55:19.329Z,99.51
2018-09-02T23:57:49.917Z,99.34
